createdAt,value
2018-03-17T00:00:43.513Z,4.70
2018-03-17T00:03:14.348Z,4.81
2018-03-17T00:05:45.182Z,4.87
2018-03-17T00:08:16.056Z,4.86
2018-03-17T00:10:46.897Z,4.89
2018-03-17T00:13:17.755Z,4.94
2018-03-17T00:15:48.573Z,4.99
2018-03-17T00:18:19.428Z,5.04
2018-03-17T00:20:50.268Z,5.10
2018-03-17T00:23:21.131Z,5.15
2018-03-17T00:25:51.972Z,5.21
2018-03-17T00:28:22.776Z,5.20
2018-03-17T00:30:53.613Z,5.24
2018-03-17T00:33:24.526Z,5.18
2018-03-17T00:35:55.365Z,5.20
2018-03-17T00:38:26.192Z,5.27
2018-03-17T00:40:56.996Z,5.28
2018-03-17T00:43:27.825Z,5.27
2018-03-17T00:45:58.632Z,5.21
2018-03-17T00:48:29.512Z,5.13
2018-03-17T00:51:00.346Z,5.04
2018-03-17T00:53:31.221Z,4.94
2018-03-17T00:56:02.038Z,4.85
2018-03-17T00:58:32.950Z,4.84
2018-03-17T01:01:03.818Z,4.87
2018-03-17T01:03:34.690Z,4.89
2018-03-17T01:06:05.506Z,4.98
2018-03-17T01:08:36.363Z,5.19
2018-03-17T01:11:07.196Z,5.23
2018-03-17T01:13:38.053Z,5.21
2018-03-17T01:16:09.160Z,5.11
2018-03-17T01:18:39.997Z,5.15
2018-03-17T01:21:10.783Z,5.09
2018-03-17T01:23:41.604Z,5.07
2018-03-17T01:26:12.445Z,5.11
2018-03-17T01:28:43.285Z,5.15
2018-03-17T01:31:14.129Z,5.22
2018-03-17T01:33:44.992Z,5.27
2018-03-17T01:36:15.810Z,5.25
2018-03-17T01:38:46.711Z,5.33
2018-03-17T01:41:17.543Z,5.34
2018-03-17T01:43:48.438Z,5.38
2018-03-17T01:46:19.261Z,5.44
2018-03-17T01:48:50.135Z,5.41
2018-03-17T01:51:20.946Z,5.39
2018-03-17T01:54:03.867Z,5.44
2018-03-17T01:56:34.708Z,5.34
2018-03-17T01:59:05.568Z,5.32
2018-03-17T02:01:36.423Z,5.36
2018-03-17T02:04:07.323Z,5.36
2018-03-17T02:06:38.160Z,5.31
2018-03-17T02:09:09.002Z,5.33
2018-03-17T02:11:39.851Z,5.32
2018-03-17T02:14:10.673Z,5.26
2018-03-17T02:16:41.496Z,5.33
2018-03-17T02:19:12.357Z,5.34
2018-03-17T02:21:43.195Z,5.24
2018-03-17T02:24:14.014Z,5.22
2018-03-17T02:26:44.810Z,5.20
2018-03-17T02:29:15.678Z,5.08
2018-03-17T02:31:46.491Z,5.00
2018-03-17T02:34:17.307Z,4.99
2018-03-17T02:36:48.139Z,4.88
2018-03-17T02:39:18.972Z,4.85
2018-03-17T02:41:49.762Z,4.78
2018-03-17T02:44:20.588Z,4.67
2018-03-17T02:46:51.397Z,4.62
2018-03-17T02:49:22.273Z,4.66
2018-03-17T02:51:53.178Z,4.54
2018-03-17T02:54:24.010Z,4.52
2018-03-17T02:56:54.828Z,4.57
2018-03-17T02:59:25.661Z,4.54
2018-03-17T03:01:56.486Z,4.47
2018-03-17T03:04:27.346Z,4.49
2018-03-17T03:06:58.178Z,4.44
2018-03-17T03:09:29.055Z,4.46
2018-03-17T03:11:59.851Z,4.42
2018-03-17T03:14:30.688Z,4.35
2018-03-17T03:17:01.511Z,4.38
2018-03-17T03:19:32.329Z,4.33
2018-03-17T03:22:03.132Z,4.34
2018-03-17T03:24:33.983Z,4.29
2018-03-17T03:27:04.814Z,4.20
2018-03-17T03:29:35.651Z,4.23
2018-03-17T03:32:06.494Z,4.18
2018-03-17T03:34:37.351Z,4.13
2018-03-17T03:37:08.188Z,3.92
2018-03-17T03:39:39.027Z,3.99
2018-03-17T03:42:09.858Z,4.03
2018-03-17T03:44:40.693Z,3.98
2018-03-17T03:47:11.513Z,4.02
2018-03-17T03:49:42.393Z,4.02
2018-03-17T03:52:13.230Z,3.91
2018-03-17T03:54:44.078Z,3.91
2018-03-17T03:57:14.898Z,3.79
2018-03-17T03:59:45.742Z,3.80
2018-03-17T04:02:16.546Z,3.73
2018-03-17T04:04:47.354Z,3.68
2018-03-17T04:07:18.169Z,3.62
2018-03-17T04:09:49.028Z,3.52
2018-03-17T04:12:19.819Z,3.50
2018-03-17T04:14:50.670Z,3.47
2018-03-17T04:17:21.517Z,3.44
2018-03-17T04:19:52.378Z,3.40
2018-03-17T04:22:23.213Z,3.27
2018-03-17T04:24:54.077Z,3.26
2018-03-17T04:27:24.981Z,3.18
2018-03-17T04:29:55.843Z,3.26
2018-03-17T04:32:26.698Z,3.16
2018-03-17T04:34:57.583Z,3.15
2018-03-17T04:37:28.398Z,3.20
2018-03-17T04:39:59.241Z,3.19
2018-03-17T04:42:30.057Z,3.26
2018-03-17T04:45:00.905Z,3.27
2018-03-17T04:47:31.767Z,3.30
2018-03-17T04:50:02.658Z,3.31
2018-03-17T04:52:33.463Z,3.28
2018-03-17T04:55:04.350Z,3.31
2018-03-17T04:57:35.204Z,3.32
2018-03-17T05:00:06.094Z,3.38
2018-03-17T05:02:37.927Z,3.40
2018-03-17T05:05:08.793Z,3.17
2018-03-17T05:07:39.614Z,3.16
2018-03-17T05:10:10.524Z,3.12
2018-03-17T05:12:41.365Z,2.86
2018-03-17T05:15:12.191Z,3.04
2018-03-17T05:17:43.026Z,3.08
2018-03-17T05:20:13.868Z,3.00
2018-03-17T05:22:44.683Z,3.01
2018-03-17T05:25:15.542Z,2.99
2018-03-17T05:27:46.359Z,2.91
2018-03-17T05:30:17.174Z,2.86
2018-03-17T05:32:47.967Z,2.90
2018-03-17T05:35:18.846Z,2.86
2018-03-17T05:37:49.682Z,2.82
2018-03-17T05:40:20.559Z,2.82
2018-03-17T05:42:51.355Z,2.80
2018-03-17T05:45:22.252Z,2.74
2018-03-17T05:47:53.090Z,2.74
2018-03-17T05:50:23.905Z,2.78
2018-03-17T05:52:54.722Z,2.83
2018-03-17T05:55:25.599Z,2.84
2018-03-17T05:57:56.446Z,2.83
2018-03-17T06:00:27.286Z,2.82
2018-03-17T06:02:58.152Z,2.76
2018-03-17T06:05:28.964Z,2.74
2018-03-17T06:07:59.839Z,2.84
2018-03-17T06:10:30.662Z,2.86
2018-03-17T06:13:01.493Z,2.92
2018-03-17T06:15:32.434Z,2.88
2018-03-17T06:18:03.242Z,2.72
2018-03-17T06:20:34.100Z,2.83
2018-03-17T06:23:04.924Z,2.73
2018-03-17T06:25:35.829Z,2.77
2018-03-17T06:28:06.653Z,2.68
2018-03-17T06:30:37.494Z,2.73
2018-03-17T06:33:08.305Z,2.68
2018-03-17T06:35:39.164Z,2.66
2018-03-17T06:38:10.002Z,2.73
2018-03-17T06:40:40.899Z,2.79
2018-03-17T06:43:11.739Z,2.81
2018-03-17T06:45:42.542Z,2.79
2018-03-17T06:48:13.371Z,2.69
2018-03-17T06:50:44.179Z,2.72
2018-03-17T06:53:14.993Z,2.65
2018-03-17T06:55:45.852Z,2.65
2018-03-17T06:58:16.720Z,2.73
2018-03-17T07:00:47.559Z,2.78
2018-03-17T07:03:18.409Z,2.82
2018-03-17T07:05:49.264Z,2.78
2018-03-17T07:08:20.161Z,2.79
2018-03-17T07:10:51.620Z,2.77
2018-03-17T07:13:22.425Z,2.94
2018-03-17T07:15:53.257Z,2.90
2018-03-17T07:18:24.164Z,2.68
2018-03-17T07:20:54.998Z,2.72
2018-03-17T07:23:27.364Z,2.79
2018-03-17T07:25:59.142Z,2.67
2018-03-17T07:28:30.037Z,2.65
2018-03-17T07:31:00.909Z,2.66
2018-03-17T07:33:31.771Z,2.65
2018-03-17T07:36:02.646Z,2.88
2018-03-17T07:38:33.455Z,3.00
2018-03-17T07:41:04.323Z,2.95
2018-03-17T07:43:35.114Z,2.89
2018-03-17T07:46:06.034Z,2.97
2018-03-17T07:48:36.857Z,2.66
2018-03-17T07:51:07.710Z,2.51
2018-03-17T07:53:38.574Z,2.62
2018-03-17T07:56:09.441Z,2.79
2018-03-17T07:58:40.274Z,2.90
2018-03-17T08:01:11.157Z,2.96
2018-03-17T08:03:42.003Z,3.10
2018-03-17T08:06:12.857Z,3.09
2018-03-17T08:08:43.693Z,3.13
2018-03-17T08:11:14.535Z,2.99
2018-03-17T08:13:45.369Z,3.09
2018-03-17T08:16:16.243Z,3.12
2018-03-17T08:18:47.061Z,3.21
2018-03-17T08:21:17.909Z,3.22
2018-03-17T08:23:48.737Z,3.30
2018-03-17T08:26:19.546Z,3.56
2018-03-17T08:28:50.374Z,3.69
2018-03-17T08:31:21.212Z,4.11
2018-03-17T08:33:52.046Z,4.67
2018-03-17T08:36:22.920Z,4.80
2018-03-17T08:38:53.777Z,4.30
2018-03-17T08:41:24.637Z,3.79
2018-03-17T08:43:55.477Z,3.69
2018-03-17T08:46:26.353Z,3.74
2018-03-17T08:48:57.318Z,3.59
2018-03-17T08:51:28.164Z,3.63
2018-03-17T08:53:59.002Z,3.44
2018-03-17T08:56:29.914Z,3.49
2018-03-17T08:59:00.734Z,3.59
2018-03-17T09:01:31.550Z,4.13
2018-03-17T09:04:02.407Z,4.03
2018-03-17T09:06:33.288Z,3.82
2018-03-17T09:09:04.176Z,3.85
2018-03-17T09:11:35.001Z,3.80
2018-03-17T09:14:05.770Z,3.85
2018-03-17T09:16:36.630Z,4.17
2018-03-17T09:19:07.446Z,4.08
2018-03-17T09:21:38.350Z,4.56
2018-03-17T09:24:09.238Z,4.11
2018-03-17T09:26:40.219Z,4.64
2018-03-17T09:29:11.139Z,4.31
2018-03-17T09:31:42.028Z,4.66
2018-03-17T09:34:12.889Z,4.49
2018-03-17T09:36:43.771Z,4.69
2018-03-17T09:39:14.617Z,4.67
2018-03-17T09:41:45.464Z,4.68
2018-03-17T09:44:16.339Z,4.66
2018-03-17T09:46:47.223Z,4.30
2018-03-17T09:49:18.077Z,4.48
2018-03-17T09:51:48.939Z,4.33
2018-03-17T09:54:19.801Z,3.76
2018-03-17T09:56:50.647Z,3.40
2018-03-17T09:59:21.487Z,3.51
2018-03-17T10:01:52.380Z,3.48
2018-03-17T10:04:23.211Z,3.17
2018-03-17T10:06:54.046Z,3.55
2018-03-17T10:09:24.914Z,3.12
2018-03-17T10:11:55.801Z,3.64
2018-03-17T10:14:26.692Z,3.39
2018-03-17T10:16:57.556Z,3.40
2018-03-17T10:19:28.401Z,3.50
2018-03-17T10:21:59.254Z,3.34
2018-03-17T10:24:30.084Z,3.15
2018-03-17T10:27:00.965Z,2.93
2018-03-17T10:29:31.904Z,3.03
2018-03-17T10:32:02.699Z,2.93
2018-03-17T10:34:33.618Z,2.70
2018-03-17T10:37:04.527Z,2.65
2018-03-17T10:39:35.363Z,2.61
2018-03-17T10:42:06.334Z,3.01
2018-03-17T10:44:37.267Z,2.85
2018-03-17T10:47:09.136Z,2.90
2018-03-17T10:49:39.974Z,2.88
2018-03-17T10:52:10.904Z,2.74
2018-03-17T10:54:41.860Z,2.96
2018-03-17T10:57:12.781Z,3.17
2018-03-17T10:59:43.727Z,3.48
2018-03-17T11:02:14.877Z,2.83
2018-03-17T11:04:45.705Z,2.65
2018-03-17T11:07:16.748Z,2.97
2018-03-17T11:09:47.682Z,3.20
2018-03-17T11:12:18.631Z,3.02
2018-03-17T11:14:49.556Z,3.25
2018-03-17T11:17:20.410Z,3.31
2018-03-17T11:19:51.299Z,3.61
2018-03-17T11:22:22.229Z,4.00
2018-03-17T11:24:53.119Z,3.88
2018-03-17T11:27:23.946Z,4.02
2018-03-17T11:29:54.908Z,3.80
2018-03-17T11:32:25.748Z,3.60
2018-03-17T11:34:56.611Z,3.78
2018-03-17T11:37:27.615Z,3.95
2018-03-17T11:39:59.571Z,3.61
2018-03-17T11:42:30.491Z,3.44
2018-03-17T11:45:01.334Z,3.71
2018-03-17T11:47:32.222Z,3.71
2018-03-17T11:50:03.098Z,3.71
2018-03-17T11:52:33.946Z,4.07
2018-03-17T11:55:04.801Z,4.19
2018-03-17T11:57:35.978Z,3.80
2018-03-17T12:00:06.875Z,3.67
2018-03-17T12:02:38.802Z,3.39
2018-03-17T12:05:09.614Z,3.37
2018-03-17T12:07:40.475Z,3.58
2018-03-17T12:10:11.310Z,3.60
2018-03-17T12:12:42.160Z,3.31
2018-03-17T12:15:12.957Z,3.19
2018-03-17T12:17:43.809Z,3.07
2018-03-17T12:20:14.703Z,2.89
2018-03-17T12:22:45.587Z,3.17
2018-03-17T12:25:16.458Z,3.20
2018-03-17T12:27:47.294Z,3.20
2018-03-17T12:30:18.120Z,3.62
2018-03-17T12:32:48.970Z,3.66
2018-03-17T12:35:20.285Z,3.70
2018-03-17T12:37:51.150Z,3.52
2018-03-17T12:40:22.064Z,3.29
2018-03-17T12:42:52.912Z,2.81
2018-03-17T12:45:23.781Z,2.56
2018-03-17T12:47:54.633Z,3.01
2018-03-17T12:50:25.533Z,2.81
2018-03-17T12:52:56.374Z,2.93
2018-03-17T12:55:27.198Z,2.88
2018-03-17T12:57:58.133Z,3.25
2018-03-17T13:00:28.986Z,3.22
2018-03-17T13:02:59.846Z,2.70
2018-03-17T13:05:30.650Z,2.72
2018-03-17T13:08:01.548Z,2.50
2018-03-17T13:10:32.398Z,2.40
2018-03-17T13:13:03.330Z,2.28
2018-03-17T13:15:34.130Z,2.33
2018-03-17T13:18:04.974Z,2.38
2018-03-17T13:20:35.839Z,2.66
2018-03-17T13:23:14.835Z,2.98
2018-03-17T13:25:45.680Z,2.55
2018-03-17T13:28:25.659Z,2.38
2018-03-17T13:30:56.497Z,2.55
2018-03-17T13:33:27.336Z,2.18
2018-03-17T13:36:10.485Z,2.13
2018-03-17T13:38:41.352Z,1.86
2018-03-17T13:41:12.184Z,2.21
2018-03-17T13:43:43.059Z,2.31
2018-03-17T13:46:13.959Z,2.19
2018-03-17T13:48:44.851Z,1.98
2018-03-17T13:51:15.732Z,2.10
2018-03-17T13:53:46.642Z,2.31
2018-03-17T13:56:17.485Z,2.15
2018-03-17T13:58:48.348Z,2.03
2018-03-17T14:01:19.163Z,2.08
2018-03-17T14:03:50.055Z,2.13
2018-03-17T14:06:20.891Z,1.85
2018-03-17T14:08:51.830Z,2.11
2018-03-17T14:11:22.703Z,2.56
2018-03-17T14:13:53.624Z,2.44
2018-03-17T14:16:24.455Z,2.40
2018-03-17T14:18:55.320Z,1.97
2018-03-17T14:21:26.191Z,1.73
2018-03-17T14:23:56.998Z,2.24
2018-03-17T14:26:27.826Z,2.20
2018-03-17T14:28:58.735Z,2.29
2018-03-17T14:31:29.561Z,2.48
2018-03-17T14:34:00.433Z,2.02
2018-03-17T14:36:31.273Z,1.83
2018-03-17T14:39:02.118Z,1.58
2018-03-17T14:41:32.979Z,1.71
2018-03-17T14:44:03.843Z,1.69
2018-03-17T14:46:34.691Z,1.56
2018-03-17T14:49:05.560Z,1.37
2018-03-17T14:51:36.390Z,1.57
2018-03-17T14:54:07.250Z,1.43
2018-03-17T14:56:38.066Z,1.07
2018-03-17T14:59:08.889Z,1.23
2018-03-17T15:01:39.703Z,1.11
2018-03-17T15:04:10.557Z,0.99
2018-03-17T15:06:41.377Z,0.80
2018-03-17T15:09:12.256Z,0.65
2018-03-17T15:11:43.027Z,0.71
2018-03-17T15:14:13.885Z,0.75
2018-03-17T15:16:44.738Z,0.94
2018-03-17T15:19:15.634Z,0.87
2018-03-17T15:21:46.461Z,0.66
2018-03-17T15:24:18.344Z,0.66
2018-03-17T15:26:49.170Z,0.74
2018-03-17T15:29:20.042Z,0.49
2018-03-17T15:31:50.891Z,0.76
2018-03-17T15:34:21.728Z,0.46
2018-03-17T15:36:52.593Z,0.63
2018-03-17T15:39:23.457Z,0.57
2018-03-17T15:41:54.276Z,0.78
2018-03-17T15:44:25.162Z,0.60
2018-03-17T15:46:56.062Z,0.66
2018-03-17T15:49:27.902Z,0.52
2018-03-17T15:51:58.812Z,0.43
2018-03-17T15:54:29.647Z,0.34
2018-03-17T15:57:00.472Z,0.49
2018-03-17T15:59:31.314Z,0.58
2018-03-17T16:02:02.185Z,0.40
2018-03-17T16:04:33.054Z,0.41
2018-03-17T16:07:03.897Z,0.25
2018-03-17T16:09:34.753Z,0.42
2018-03-17T16:12:05.635Z,0.22
2018-03-17T16:14:36.456Z,0.17
2018-03-17T16:17:07.343Z,0.30
2018-03-17T16:19:38.384Z,0.36
2018-03-17T16:22:09.254Z,0.45
2018-03-17T16:24:40.153Z,0.23
2018-03-17T16:27:11.021Z,0.20
2018-03-17T16:29:41.855Z,0.00
2018-03-17T16:32:12.693Z,-0.24
2018-03-17T16:34:43.532Z,-0.06
2018-03-17T16:37:14.336Z,-0.07
2018-03-17T16:39:45.198Z,0.08
2018-03-17T16:42:16.045Z,0.10
2018-03-17T16:44:46.913Z,0.03
2018-03-17T16:47:21.747Z,0.03
2018-03-17T16:49:52.601Z,-0.11
2018-03-17T16:52:23.434Z,-0.09
2018-03-17T16:54:54.263Z,-0.05
2018-03-17T16:57:25.121Z,-0.13
2018-03-17T16:59:55.945Z,-0.28
2018-03-17T17:02:26.821Z,-0.30
2018-03-17T17:04:57.699Z,-0.22
2018-03-17T17:07:28.534Z,-0.26
2018-03-17T17:09:59.446Z,-0.31
2018-03-17T17:12:30.318Z,-0.43
2018-03-17T17:15:01.167Z,-0.63
2018-03-17T17:17:32.042Z,-0.48
2018-03-17T17:20:06.393Z,-0.46
2018-03-17T17:22:38.030Z,-0.51
2018-03-17T17:25:10.001Z,-0.47
2018-03-17T17:27:40.928Z,-0.62
2018-03-17T17:30:11.789Z,-0.52
2018-03-17T17:50:12.077Z,-0.75
2018-03-17T17:52:42.857Z,-0.78
2018-03-17T17:55:13.797Z,-0.74
2018-03-17T17:57:44.602Z,-0.71
2018-03-17T18:00:15.364Z,-0.81
2018-03-17T18:02:46.121Z,-0.77
2018-03-17T18:05:17.381Z,-0.78
2018-03-17T18:07:48.161Z,-0.74
2018-03-17T18:10:19.001Z,-0.70
2018-03-17T18:12:49.788Z,-0.80
2018-03-17T18:15:20.550Z,-0.81
2018-03-17T18:17:51.336Z,-0.75
2018-03-17T18:20:22.082Z,-0.82
2018-03-17T18:22:52.853Z,-0.86
2018-03-17T18:25:23.605Z,-0.87
2018-03-17T18:27:54.394Z,-0.83
2018-03-17T18:30:25.150Z,-0.74
2018-03-17T18:32:55.916Z,-0.75
2018-03-17T18:35:26.664Z,-0.79
2018-03-17T18:37:57.426Z,-0.94
2018-03-17T18:40:28.184Z,-0.92
2018-03-17T18:42:58.958Z,-0.91
2018-03-17T18:45:30.696Z,-0.95
2018-03-17T18:48:01.448Z,-1.03
2018-03-17T18:50:32.210Z,-0.94
2018-03-17T18:53:03.106Z,-0.98
2018-03-17T18:55:33.872Z,-0.96
2018-03-17T18:58:04.636Z,-0.98
2018-03-17T19:00:35.404Z,-0.93
2018-03-17T19:03:06.181Z,-1.02
2018-03-17T19:05:36.920Z,-0.98
2018-03-17T19:08:07.737Z,-1.11
2018-03-17T19:10:39.497Z,-1.14
2018-03-17T19:13:10.264Z,-1.19
2018-03-17T19:15:41.049Z,-1.09
2018-03-17T19:18:11.821Z,-1.01
2018-03-17T19:20:42.713Z,-0.98
2018-03-17T19:23:13.493Z,-1.01
2018-03-17T19:25:44.269Z,-0.98
2018-03-17T19:28:15.041Z,-1.07
2018-03-17T19:30:46.109Z,-1.02
2018-03-17T19:33:17.127Z,-1.17
2018-03-17T19:35:47.876Z,-1.30
2018-03-17T19:38:18.653Z,-1.21
2018-03-17T19:40:49.433Z,-1.10
2018-03-17T19:43:20.220Z,-1.38
2018-03-17T19:45:51.040Z,-1.45
2018-03-17T19:48:21.846Z,-1.43
2018-03-17T19:50:52.695Z,-1.44
2018-03-17T19:53:23.481Z,-1.48
2018-03-17T19:55:54.816Z,-1.38
2018-03-17T19:58:25.582Z,-1.55
2018-03-17T20:00:56.596Z,-1.66
2018-03-17T20:03:27.427Z,-1.77
2018-03-17T20:05:58.260Z,-1.76
2018-03-17T20:08:29.048Z,-1.90
2018-03-17T20:10:59.809Z,-1.97
2018-03-17T20:13:30.579Z,-2.00
2018-03-17T20:16:01.350Z,-1.86
2018-03-17T20:18:32.164Z,-1.88
2018-03-17T20:21:02.932Z,-1.86
2018-03-17T20:23:33.748Z,-1.91
2018-03-17T20:26:04.520Z,-1.82
2018-03-17T20:28:35.284Z,-1.90
2018-03-17T20:31:06.069Z,-1.89
2018-03-17T20:33:36.889Z,-1.90
2018-03-17T20:36:07.698Z,-1.98
2018-03-17T20:38:38.513Z,-2.07
2018-03-17T20:41:09.282Z,-2.14
2018-03-17T20:43:40.054Z,-2.16
2018-03-17T20:46:10.833Z,-2.06
2018-03-17T20:48:41.604Z,-2.07
2018-03-17T20:51:13.463Z,-2.10
2018-03-17T20:53:44.233Z,-2.12
2018-03-17T20:56:15.004Z,-2.18
2018-03-17T20:58:45.785Z,-2.11
2018-03-17T21:01:16.585Z,-2.04
2018-03-17T21:03:47.369Z,-2.07
2018-03-17T21:06:18.118Z,-2.10
2018-03-17T21:08:48.900Z,-2.10
2018-03-17T21:11:19.694Z,-2.04
2018-03-17T21:13:50.474Z,-1.98
2018-03-17T21:16:21.305Z,-2.00
2018-03-17T21:18:52.077Z,-2.06
2018-03-17T21:21:22.848Z,-2.04
2018-03-17T21:23:53.769Z,-2.05
2018-03-17T21:26:24.540Z,-2.06
2018-03-17T21:28:55.304Z,-2.19
2018-03-17T21:31:26.058Z,-2.17
2018-03-17T21:33:56.876Z,-2.30
2018-03-17T21:36:27.632Z,-2.31
2018-03-17T21:38:58.421Z,-2.33
2018-03-17T21:41:29.212Z,-2.32
2018-03-17T21:43:59.989Z,-2.40
2018-03-17T21:46:30.752Z,-2.43
2018-03-17T21:49:01.553Z,-2.40
2018-03-17T21:51:32.335Z,-2.48
2018-03-17T21:54:03.109Z,-2.54
2018-03-17T21:56:33.873Z,-2.58
2018-03-17T21:59:04.797Z,-2.67
2018-03-17T22:01:35.582Z,-2.70
2018-03-17T22:04:06.401Z,-2.70
2018-03-17T22:06:37.226Z,-2.67
2018-03-17T22:09:07.997Z,-2.77
2018-03-17T22:11:38.749Z,-2.72
2018-03-17T22:14:09.535Z,-2.69
2018-03-17T22:16:40.319Z,-2.69
2018-03-17T22:19:11.118Z,-2.70
2018-03-17T22:21:41.928Z,-2.62
2018-03-17T22:24:12.702Z,-2.62
2018-03-17T22:26:43.468Z,-2.66
2018-03-17T22:29:14.257Z,-2.58
2018-03-17T22:31:45.065Z,-2.61
2018-03-17T22:34:15.909Z,-2.60
2018-03-17T22:36:47.058Z,-2.63
2018-03-17T22:39:17.952Z,-2.57
2018-03-17T22:41:48.873Z,-2.65
2018-03-17T22:44:19.961Z,-2.62
2018-03-17T22:46:50.820Z,-2.66
2018-03-17T22:49:21.799Z,-2.62
2018-03-17T22:51:52.556Z,-2.62
2018-03-17T22:54:23.732Z,-2.65
2018-03-17T22:56:54.486Z,-2.64
2018-03-17T22:59:25.344Z,-2.78
2018-03-17T23:01:56.214Z,-2.80
2018-03-17T23:04:27.265Z,-2.84
2018-03-17T23:06:58.025Z,-2.90
2018-03-17T23:09:28.780Z,-2.85
2018-03-17T23:11:59.632Z,-2.86
2018-03-17T23:14:30.417Z,-2.88
2018-03-17T23:17:01.179Z,-2.89
2018-03-17T23:19:31.970Z,-2.87
2018-03-17T23:22:02.733Z,-2.92
2018-03-17T23:24:33.521Z,-2.88
2018-03-17T23:27:04.280Z,-2.91
2018-03-17T23:29:35.081Z,-2.92
2018-03-17T23:32:05.857Z,-2.91
2018-03-17T23:34:36.644Z,-2.88
2018-03-17T23:37:07.412Z,-2.89
2018-03-17T23:39:38.187Z,-2.82
2018-03-17T23:42:08.960Z,-2.84
2018-03-17T23:44:39.745Z,-2.95
2018-03-17T23:47:10.535Z,-3.01
2018-03-17T23:49:41.347Z,-3.04
2018-03-17T23:52:12.120Z,-2.95
2018-03-17T23:54:42.909Z,-2.93
2018-03-17T23:57:13.672Z,-2.96
2018-03-17T23:59:44.459Z,-3.06
